Time;durP1;ratioP1;P1;durP2;ratioP2;P2;SDS_P1;SDS_P2;PMS_P1;PMS_P2;Temp;Humidity;BMP_temperature;BMP_pressure;BME280_temperature;BME280_humidity;BME280_pressure;Samples;Min_cycle;Max_cycle;Signal;HPM_P1;HPM_P2
2023/10/12 00:00:27;;;;;;;8.45;4.78;;;;;;;21.67;58.39;101240.22;5004270;28;20096;-38
2023/10/12 00:02:58;;;;;;;7.40;4.75;;;;;;;21.66;58.00;101255.53;5001232;28;20093;-38
2023/10/12 00:05:27;;;;;;;6.95;4.85;;;;;;;21.66;58.20;101255.53;5001284;28;20038;-38
2023/10/12 00:07:55;;;;;;;10.10;5.13;;;;;;;21.66;58.02;101266.31;5000446;28;20074;-38
2023/10/12 00:10:22;;;;;;;7.30;4.57;;;;;;;21.65;58.27;101267.34;5000814;28;20508;-38
2023/10/12 00:12:53;;;;;;;6.05;4.50;;;;;;;21.65;58.19;101263.81;5003935;28;20146;-38
2023/10/12 00:15:28;;;;;;;5.50;4.13;;;;;;;21.65;58.21;101258.41;5002734;28;20049;-38
2023/10/12 00:17:58;;;;;;;7.13;4.22;;;;;;;21.64;58.44;101262.97;5000739;28;20050;-38
2023/10/12 00:20:35;;;;;;;6.82;4.88;;;;;;;21.65;58.56;101258.41;5001950;28;20050;-38
2023/10/12 00:23:09;;;;;;;7.70;4.82;;;;;;;21.65;58.37;101266.50;4997676;28;20136;-38
2023/10/12 00:25:54;;;;;;;6.82;4.90;;;;;;;21.64;58.35;101265.66;4997900;28;20053;-38
2023/10/12 00:28:23;;;;;;;7.13;5.03;;;;;;;21.64;58.28;101262.97;4999954;28;20054;-38
2023/10/12 00:30:58;;;;;;;7.43;4.97;;;;;;;21.65;58.38;101275.44;5003383;28;20438;-38
2023/10/12 00:33:25;;;;;;;6.50;5.05;;;;;;;21.63;58.59;101261.28;4999969;28;20054;-38
2023/10/12 00:36:00;;;;;;;7.07;4.55;;;;;;;21.64;58.61;101267.53;5001069;28;20141;-37
2023/10/12 00:38:30;;;;;;;6.32;4.03;;;;;;;21.63;58.57;101265.84;5003285;28;20050;-37
2023/10/12 00:41:04;;;;;;;7.95;4.25;;;;;;;21.63;58.51;101265.84;4999523;28;20054;-37
2023/10/12 00:43:37;;;;;;;8.32;4.97;;;;;;;21.63;58.39;101277.47;5005003;28;20120;-38
2023/10/12 00:46:32;;;;;;;7.20;5.10;;;;;;;21.62;58.78;101283.00;4998564;28;20371;-37
2023/10/12 00:51:50;;;;;;;7.82;4.80;;;;;;;21.62;58.59;101301.91;5000266;28;20057;-38
2023/10/12 00:54:32;;;;;;;7.55;4.90;;;;;;;21.62;58.47;101289.25;5006470;28;20141;-38
2023/10/12 00:57:03;;;;;;;8.70;5.07;;;;;;;21.61;58.53;101295.66;5001715;28;20065;-38
2023/10/12 00:59:34;;;;;;;8.52;4.90;;;;;;;21.61;58.78;101303.75;5005511;28;20151;-38
2023/10/12 01:02:08;;;;;;;7.30;4.50;;;;;;;21.59;58.76;101288.75;5006001;28;20394;-38
2023/10/12 01:04:37;;;;;;;6.28;4.78;;;;;;;21.60;58.89;101283.19;5004297;28;20073;-38
2023/10/12 01:07:06;;;;;;;6.60;5.00;;;;;;;21.60;58.41;101287.75;5002816;28;20074;-38
2023/10/12 01:09:43;;;;;;;8.52;5.00;;;;;;;21.60;58.53;101288.59;5005572;28;20475;-38
2023/10/12 01:12:13;;;;;;;8.93;4.85;;;;;;;21.60;58.46;101291.28;5005900;28;20050;-38
2023/10/12 01:14:47;;;;;;;9.07;4.80;;;;;;;21.58;58.68;101295.97;5003707;28;20464;-37
2023/10/12 01:17:28;;;;;;;6.30;4.25;;;;;;;21.58;58.67;101300.53;5005840;28;20042;-37
2023/10/12 01:19:56;;;;;;;5.90;4.55;;;;;;;21.57;58.61;101304.25;5007659;28;20045;-37
2023/10/12 01:22:31;;;;;;;7.57;5.00;;;;;;;21.56;58.67;101298.03;5007422;28;20050;-37
2023/10/12 01:25:00;;;;;;;6.35;4.65;;;;;;;21.56;58.64;101307.97;5005493;28;20058;-37
2023/10/12 01:27:27;;;;;;;8.00;4.75;;;;;;;21.56;59.03;101297.19;5001326;28;20104;-37
2023/10/12 01:30:12;;;;;;;7.93;4.35;;;;;;;;;;5000146;28;20057;-37
2023/10/12 01:32:39;;;;;;;6.03;4.20;;;;;;;21.55;58.83;101296.34;5002849;28;20057;-38
2023/10/12 01:35:07;;;;;;;6.13;4.40;;;;;;;21.54;58.76;101285.69;5004796;28;20104;-37
2023/10/12 01:37:48;;;;;;;5.93;3.97;;;;;;;21.53;58.66;101274.06;5005324;28;20075;-37
2023/10/12 01:40:21;;;;;;;6.72;4.45;;;;;;;21.53;59.02;101271.38;5003678;28;20089;-37
2023/10/12 01:48:06;;;;;;;6.25;4.28;;;;;;;21.51;59.02;101277.94;5003130;28;20144;-37
2023/10/12 01:50:37;;;;;;;5.75;4.00;;;;;;;21.52;58.83;101285.03;5006692;28;20104;-37
2023/10/12 01:53:29;;;;;;;7.35;4.10;;;;;;;21.51;58.91;101281.50;5006869;28;20410;-37
2023/10/12 01:55:55;;;;;;;6.43;4.43;;;;;;;21.51;58.90;101281.50;5002991;28;20129;-38
2023/10/12 01:58:27;;;;;;;8.43;4.35;;;;;;;21.51;58.59;101277.94;5005247;28;20073;-37
2023/10/12 02:01:04;;;;;;;5.45;3.75;;;;;;;21.51;58.90;101289.59;5006999;28;20058;-37
2023/10/12 02:03:32;;;;;;;8.38;4.43;;;;;;;21.51;58.81;101278.81;5002802;28;20050;-37
2023/10/12 02:05:59;;;;;;;6.82;4.03;;;;;;;21.51;58.70;101289.59;5001623;28;21264;-37
2023/10/12 02:08:40;;;;;;;6.13;4.30;;;;;;;21.52;58.82;101285.03;5004430;28;20327;-37
2023/10/12 02:11:11;;;;;;;6.30;4.57;;;;;;;21.51;58.72;101284.19;5004354;28;20129;-38
2023/10/12 02:13:41;;;;;;;6.07;4.30;;;;;;;21.51;58.72;101277.94;5005732;28;20058;-38
2023/10/12 02:16:12;;;;;;;5.35;3.42;;;;;;;21.50;58.72;101276.25;5008046;28;20436;-38
2023/10/12 02:18:40;;;;;;;4.63;3.53;;;;;;;21.50;58.82;101271.69;4998932;28;20054;-38
2023/10/12 02:24:10;;;;;;;6.13;4.28;;;;;;;21.47;58.85;101280.16;4999914;28;20042;-38
2023/10/12 02:29:19;;;;;;;8.48;5.05;;;;;;;21.49;58.70;101285.34;5002502;28;20509;-38
2023/10/12 02:34:19;;;;;;;6.43;4.50;;;;;;;21.46;58.71;101283.81;5002565;28;20461;-38
2023/10/12 02:39:39;;;;;;;6.03;3.95;;;;;;;21.46;58.80;101296.47;4997492;28;20362;-38
2023/10/12 02:45:07;;;;;;;5.50;3.85;;;;;;;21.44;58.71;101299.34;5002355;28;20062;-38
2023/10/12 02:47:31;;;;;;;6.45;3.88;;;;;;;21.44;58.63;101297.50;5001793;28;20143;-38
2023/10/12 02:50:14;;;;;;;6.07;4.07;;;;;;;21.44;58.77;101292.09;5004075;28;20081;-38
2023/10/12 02:52:44;;;;;;;5.43;3.78;;;;;;;21.44;58.67;101272.38;5000560;28;20466;-37
2023/10/12 02:57:59;;;;;;;4.10;3.50;;;;;;;21.43;58.92;101268.00;5005200;28;20092;-37
2023/10/12 03:04:10;;;;;;;4.45;3.30;;;;;;;21.41;59.09;101280.78;5003860;28;20430;-37
2023/10/12 03:06:22;;;;;;;4.28;3.42;;;;;;;21.41;58.80;101288.88;5000187;28;20042;-37
2023/10/12 03:09:03;;;;;;;4.55;3.55;;;;;;;21.40;58.79;101289.91;5001312;28;20363;-37
2023/10/12 03:11:34;;;;;;;4.55;3.45;;;;;;;21.38;58.81;101284.66;5001292;28;20042;-37
2023/10/12 03:14:01;;;;;;;4.55;3.17;;;;;;;21.37;58.82;101288.38;4996159;28;20130;-37
2023/10/12 03:16:41;;;;;;;4.65;3.50;;;;;;;21.37;58.77;101287.53;5000509;28;20113;-38
2023/10/12 03:19:21;;;;;;;4.22;3.28;;;;;;;21.36;58.84;101293.94;5001247;28;20046;-37
2023/10/12 03:21:51;;;;;;;4.75;3.92;;;;;;;21.35;58.91;101292.25;4997597;28;20166;-38
2023/10/12 03:24:25;;;;;;;4.43;3.15;;;;;;;21.34;58.73;101288.69;5002542;28;20062;-37
2023/10/12 03:29:28;;;;;;;4.15;3.10;;;;;;;21.32;59.00;101290.72;5003203;28;20425;-38
2023/10/12 03:31:57;;;;;;;4.40;3.40;;;;;;;21.32;58.93;101285.31;5006423;28;20081;-37
2023/10/12 03:37:04;;;;;;;4.82;3.70;;;;;;;21.32;58.91;101273.66;4999197;28;20050;-38
2023/10/12 03:39:43;;;;;;;4.72;3.22;;;;;;;21.31;58.90;101261.19;4999695;28;20085;-37
2023/10/12 03:50:27;;;;;;;4.95;3.33;;;;;;;21.30;59.03;101283.75;4998822;28;20620;-37
2023/10/12 03:52:53;;;;;;;5.00;3.22;;;;;;;21.28;59.13;101288.50;5004346;28;20418;-37
2023/10/12 03:55:27;;;;;;;4.22;3.05;;;;;;;21.28;59.08;101299.28;4999748;28;20120;-37
2023/10/12 03:58:00;;;;;;;4.05;3.40;;;;;;;21.28;59.07;101296.56;5001605;28;20307;-37
2023/10/12 04:00:50;;;;;;;5.60;3.20;;;;;;;21.27;59.14;101293.03;5001143;28;20051;-37
2023/10/12 04:03:33;;;;;;;3.97;2.78;;;;;;;21.28;58.99;101296.56;5000774;28;20082;-37
2023/10/12 04:06:05;;;;;;;3.38;2.90;;;;;;;21.28;59.29;101307.34;4999943;28;20088;-38
2023/10/12 04:08:45;;;;;;;3.90;3.25;;;;;;;21.27;58.99;101311.06;5003745;28;20053;-37
2023/10/12 04:18:42;;;;;;;4.43;3.20;;;;;;;21.27;59.04;101314.59;5003755;28;20148;-37
2023/10/12 04:21:10;;;;;;;4.18;2.85;;;;;;;21.26;59.06;101312.91;5004489;28;20406;-38
2023/10/12 04:23:49;;;;;;;4.93;2.95;;;;;;;21.26;58.67;101321.00;5008833;28;20054;-37
2023/10/12 04:28:55;;;;;;;4.30;3.10;;;;;;;21.27;59.07;101319.16;5006805;28;20053;-37
2023/10/12 04:41:38;;;;;;;5.28;2.90;;;;;;;21.26;58.93;101331.78;5009534;28;20127;-37
2023/10/12 04:44:25;;;;;;;5.72;3.63;;;;;;;21.24;58.95;101343.75;5004786;28;20077;-37
2023/10/12 04:47:04;;;;;;;3.58;2.70;;;;;;;21.24;58.93;101349.97;5004675;28;20054;-37
2023/10/12 04:54:49;;;;;;;4.15;2.70;;;;;;;21.22;58.78;101360.06;5005905;28;20108;-38
2023/10/12 04:57:16;;;;;;;4.03;2.53;;;;;;;21.20;58.68;101368.31;5005490;28;20050;-38
2023/10/12 05:00:01;;;;;;;3.08;2.42;;;;;;;21.19;59.23;101374.72;5010248;28;20128;-37
2023/10/12 05:07:27;;;;;;;3.08;2.78;;;;;;;21.18;58.87;101372.19;5008051;28;20069;-38
2023/10/12 05:09:54;;;;;;;3.47;2.47;;;;;;;21.16;58.79;101377.75;5005817;28;20100;-38
2023/10/12 05:12:23;;;;;;;4.60;2.67;;;;;;;21.16;59.10;101383.13;5003814;28;20041;-38
2023/10/12 05:14:55;;;;;;;3.67;2.90;;;;;;;21.16;58.97;101380.44;5002849;28;20133;-38
2023/10/12 05:17:22;;;;;;;3.83;2.70;;;;;;;21.15;59.03;101386.84;5007669;28;20054;-38
2023/10/12 05:19:52;;;;;;;2.80;2.33;;;;;;;21.14;58.90;101379.75;5009210;28;20484;-38
2023/10/12 05:22:22;;;;;;;4.00;2.80;;;;;;;21.14;59.17;101381.59;5010188;28;20045;-38
2023/10/12 05:24:48;;;;;;;2.92;2.47;;;;;;;21.13;58.99;101379.91;5004514;28;20056;-38
2023/10/12 05:27:28;;;;;;;3.10;2.40;;;;;;;21.14;59.11;101386.97;5004047;28;20043;-38
2023/10/12 05:30:05;;;;;;;4.07;2.60;;;;;;;21.12;59.20;101386.31;5002799;28;20058;-38
2023/10/12 05:32:42;;;;;;;3.50;2.30;;;;;;;21.11;59.06;101390.03;5003716;28;20052;-38
2023/10/12 05:35:15;;;;;;;4.85;2.70;;;;;;;21.09;59.17;101392.84;5000787;28;20085;-38
2023/10/12 05:37:48;;;;;;;2.88;2.55;;;;;;;21.09;59.22;101392.84;5003432;28;20041;-38
2023/10/12 05:40:16;;;;;;;3.22;2.47;;;;;;;21.08;59.20;101393.88;5003671;28;20050;-38
2023/10/12 05:42:46;;;;;;;2.78;2.28;;;;;;;21.08;59.33;101399.25;5002946;28;20100;-38
2023/10/12 05:45:27;;;;;;;3.22;2.50;;;;;;;21.08;58.90;101401.13;5002751;28;20132;-38
2023/10/12 05:47:54;;;;;;;4.00;2.50;;;;;;;21.08;59.15;101398.44;5004315;28;20039;-38
2023/10/12 05:50:23;;;;;;;3.22;2.35;;;;;;;21.07;58.85;101410.22;5010865;28;20496;-38
2023/10/12 05:52:59;;;;;;;3.83;2.55;;;;;;;21.06;59.09;101412.03;5003524;28;20056;-38
2023/10/12 05:55:27;;;;;;;3.85;2.53;;;;;;;21.05;59.15;101413.06;5001598;28;20429;-38
2023/10/12 05:58:03;;;;;;;3.67;3.20;;;;;;;21.06;59.21;101417.44;5005500;28;20054;-38
2023/10/12 06:00:36;;;;;;;3.08;2.30;;;;;;;21.05;59.22;101415.75;5004169;28;20054;-38
2023/10/12 06:03:05;;;;;;;3.78;2.42;;;;;;;21.05;59.36;101414.91;5005708;28;20052;-38
2023/10/12 06:05:33;;;;;;;3.80;2.40;;;;;;;21.05;59.28;101423.00;5007418;28;20085;-38
2023/10/12 06:08:04;;;;;;;3.10;2.22;;;;;;;21.03;59.39;101417.78;5002694;28;20057;-39
2023/10/12 06:10:31;;;;;;;3.63;2.58;;;;;;;21.02;59.00;101416.06;4999475;28;20054;-38
2023/10/12 06:12:58;;;;;;;4.55;3.22;;;;;;;21.02;59.24;101413.38;5005985;28;20426;-38
2023/10/12 06:15:28;;;;;;;4.78;3.42;;;;;;;21.02;59.26;101418.75;5001209;28;20310;-38
2023/10/12 06:17:55;;;;;;;5.38;2.85;;;;;;;21.02;58.92;101424.16;5002931;28;20839;-38
2023/10/12 06:23:13;;;;;;;4.50;2.50;;;;;;;21.01;59.41;101432.41;5008277;28;20085;-38
2023/10/12 06:25:43;;;;;;;4.68;3.03;;;;;;;20.99;59.11;101429.88;5005744;28;20050;-38
2023/10/12 06:28:29;;;;;;;4.30;2.60;;;;;;;20.99;59.35;101435.28;5000733;28;20050;-38
2023/10/12 06:30:56;;;;;;;5.68;3.13;;;;;;;20.99;59.06;101435.28;5002201;28;20419;-37
2023/10/12 06:33:23;;;;;;;4.40;2.70;;;;;;;20.98;59.26;101438.94;5001125;28;20042;-37
2023/10/12 06:35:58;;;;;;;4.75;2.58;;;;;;;20.99;59.30;101434.44;5006311;28;21075;-38
2023/10/12 06:38:38;;;;;;;4.53;2.80;;;;;;;20.98;59.20;101446.19;4997910;28;20133;-37
2023/10/12 06:43:57;;;;;;;6.47;3.13;;;;;;;20.98;59.15;101446.19;5000605;28;20333;-37
2023/10/12 06:46:35;;;;;;;4.88;2.55;;;;;;;20.96;58.92;101440.97;5002670;28;20468;-37
2023/10/12 06:49:06;;;;;;;3.80;2.70;;;;;;;20.96;59.35;101443.66;4999661;28;20046;-38
2023/10/12 06:51:33;;;;;;;6.72;2.50;;;;;;;20.95;59.36;101453.59;5000444;28;20057;-37
2023/10/12 06:54:08;;;;;;;4.32;2.60;;;;;;;20.95;59.30;101458.16;5000609;28;20058;-37
2023/10/12 06:56:39;;;;;;;4.60;2.10;;;;;;;20.95;59.36;101460.84;5008084;28;20049;-37
2023/10/12 07:01:51;;;;;;;4.82;2.60;;;;;;;20.94;59.04;101473.47;5001106;28;20046;-37
2023/10/12 07:04:28;;;;;;;4.03;2.78;;;;;;;20.94;59.27;101469.91;4997721;28;20141;-37
2023/10/12 07:07:07;;;;;;;4.25;2.03;;;;;;;20.94;59.22;101475.31;5003298;28;20149;-37
2023/10/12 07:09:44;;;;;;;4.63;2.60;;;;;;;20.93;59.49;101470.91;5000759;28;20046;-37
2023/10/12 07:12:17;;;;;;;3.67;2.40;;;;;;;20.93;58.93;101481.69;5003492;28;20069;-37
2023/10/12 07:14:47;;;;;;;3.58;2.30;;;;;;;20.93;59.36;101487.94;5001757;28;20055;-37
2023/10/12 07:17:15;;;;;;;4.55;2.55;;;;;;;20.94;59.03;101488.78;5002290;28;20078;-37
2023/10/12 07:19:46;;;;;;;4.60;2.70;;;;;;;20.93;59.00;101496.00;5004693;28;20056;-38
2023/10/12 07:22:18;;;;;;;4.40;2.17;;;;;;;20.93;58.84;101495.19;5001269;28;20050;-37
2023/10/12 07:24:52;;;;;;;6.47;2.35;;;;;;;20.92;58.94;101496.19;5000429;28;20053;-39
2023/10/12 07:27:19;;;;;;;;;;;;;;;20.91;58.88;101499.91;5002927;28;20038;-38
2023/10/12 07:30:08;;;;;;;4.88;2.40;;;;;;;20.95;58.85;101503.97;5003686;28;19922;-40
2023/10/12 07:32:54;;;;;;;5.00;2.38;;;;;;;20.94;58.81;101499.56;5006422;28;20156;-37
2023/10/12 07:35:38;;;;;;;3.92;2.50;;;;;;;20.93;58.98;101501.41;5004109;28;20050;-37
2023/10/12 07:38:40;;;;;;;4.68;2.35;;;;;;;20.92;58.82;101505.13;5000368;28;20046;-37
2023/10/12 07:41:00;;;;;;;3.50;2.47;;;;;;;20.91;58.83;101491.81;4998501;28;20050;-37
2023/10/12 07:43:31;;;;;;;3.72;2.45;;;;;;;20.91;58.73;101503.44;5004520;28;20045;-37
2023/10/12 07:46:25;;;;;;;5.28;2.50;;;;;;;20.90;59.09;101504.44;5002641;28;20042;-37
2023/10/12 07:48:49;;;;;;;3.72;2.13;;;;;;;20.91;58.80;101499.91;4997105;28;20037;-37
2023/10/12 07:51:25;;;;;;;4.57;2.17;;;;;;;20.90;58.61;101492.78;5003474;28;20319;-37
2023/10/12 07:54:00;;;;;;;3.92;2.00;;;;;;;20.90;58.80;101493.66;5000597;28;20073;-38
2023/10/12 07:56:40;;;;;;;4.65;2.42;;;;;;;20.88;59.07;101494.81;5001979;28;20485;-38
2023/10/12 07:59:13;;;;;;;3.63;2.30;;;;;;;20.89;58.83;101500.03;5001625;28;20446;-37
2023/10/12 08:01:47;;;;;;;3.60;2.20;;;;;;;20.87;58.70;101499.34;5007216;28;20104;-37
2023/10/12 08:04:29;;;;;;;3.47;2.40;;;;;;;20.88;58.79;101492.13;5009927;28;20050;-37
2023/10/12 08:06:56;;;;;;;4.63;2.30;;;;;;;20.90;58.79;101495.47;5006233;28;20056;-37
2023/10/12 08:11:53;;;;;;;3.05;2.00;;;;;;;20.87;58.93;101490.44;5004804;28;20436;-37
2023/10/12 08:18:09;;;;;;;2.58;2.00;;;;;;;20.87;59.07;101498.50;5005059;28;20050;-37
2023/10/12 08:19:55;;;;;;;2.70;1.73;;;;;;;20.87;58.71;101496.66;4998628;28;20050;-37
2023/10/12 08:22:29;;;;;;;3.00;1.80;;;;;;;20.87;59.01;101506.59;5002577;28;20041;-37
2023/10/12 08:24:58;;;;;;;5.10;2.03;;;;;;;20.87;58.90;101512.81;5006940;28;20077;-37
2023/10/12 08:27:39;;;;;;;2.60;1.80;;;;;;;20.86;58.67;101504.88;5003478;28;20088;-37
2023/10/12 08:30:48;;;;;;;2.75;1.80;;;;;;;20.86;59.04;101500.34;5005368;28;20096;-37
2023/10/12 08:33:14;;;;;;;2.17;1.70;;;;;;;20.88;58.86;101500.19;5004934;28;20058;-37
2023/10/12 08:38:40;;;;;;;2.95;1.83;;;;;;;20.89;59.02;101505.41;5008125;28;20046;-37
2023/10/12 08:44:00;;;;;;;4.38;2.03;;;;;;;20.90;58.79;101519.72;4983172;28;20057;-38
2023/10/12 08:52:07;;;;;;;3.08;1.80;;;;;;;20.90;58.85;101523.31;5000988;28;20054;-37
2023/10/12 08:54:37;;;;;;;2.85;1.83;;;;;;;20.90;58.65;101526.00;5006730;28;20050;-38
2023/10/12 08:57:19;;;;;;;2.20;1.73;;;;;;;20.91;58.64;101522.28;5007189;28;20058;-37
2023/10/12 09:00:19;;;;;;;2.78;1.63;;;;;;;20.90;58.74;101526.00;5002862;28;20057;-37
2023/10/12 09:02:49;;;;;;;2.63;1.65;;;;;;;20.93;58.61;101522.13;5016056;28;20081;-37
2023/10/12 09:05:24;;;;;;;5.55;2.35;;;;;;;20.93;58.76;101522.13;5005775;28;20050;-37
2023/10/12 09:10:49;;;;;;;2.53;1.63;;;;;;;20.92;58.87;101517.75;5009530;28;20108;-37
2023/10/12 09:13:17;;;;;;;2.28;1.40;;;;;;;20.91;58.79;101524.16;5006433;28;20457;-37
2023/10/12 09:15:54;;;;;;;2.35;1.55;;;;;;;20.91;59.00;101518.75;5004053;28;20442;-37
2023/10/12 09:18:24;;;;;;;3.45;1.90;;;;;;;20.92;58.69;101520.44;5000044;28;20065;-37
2023/10/12 09:23:52;;;;;;;2.20;1.60;;;;;;;20.92;58.64;101520.44;5004861;28;20104;-37
2023/10/12 09:26:37;;;;;;;2.78;1.70;;;;;;;20.92;58.63;101510.50;5003987;28;20101;-37
2023/10/12 09:36:44;;;;;;;2.90;1.70;;;;;;;20.94;58.55;101496.84;4999115;28;20129;-37
2023/10/12 09:39:14;;;;;;;3.00;1.90;;;;;;;20.94;58.51;101491.47;5007110;28;20093;-37
2023/10/12 09:41:54;;;;;;;1.67;1.35;;;;;;;20.93;58.25;101497.88;4999193;28;20163;-37
2023/10/12 09:44:27;;;;;;;2.60;1.80;;;;;;;20.94;58.53;101500.44;5006888;28;20646;-37
2023/10/12 09:46:59;;;;;;;2.17;1.40;;;;;;;20.94;58.69;101494.16;4997470;28;20184;-37
2023/10/12 09:49:29;;;;;;;2.78;1.60;;;;;;;20.95;58.39;101498.56;5002384;28;20392;-37
2023/10/12 09:52:13;;;;;;;2.95;1.40;;;;;;;20.93;58.50;101487.94;5004077;28;20497;-37
2023/10/12 09:54:53;;;;;;;1.50;1.33;;;;;;;20.96;58.38;101494.88;5005101;28;20077;-38
2023/10/12 09:57:24;;;;;;;2.47;1.50;;;;;;;20.97;58.39;101483.06;5003998;28;20050;-37
2023/10/12 09:59:53;;;;;;;1.73;1.38;;;;;;;20.97;58.36;101480.38;5002522;28;20049;-37
2023/10/12 10:02:33;;;;;;;3.33;1.80;;;;;;;20.96;58.53;101473.31;5003688;28;20127;-37
2023/10/12 10:05:11;;;;;;;2.72;1.42;;;;;;;20.96;57.99;101476.00;5005570;28;20097;-37
2023/10/12 10:07:55;;;;;;;2.35;1.52;;;;;;;20.97;58.55;101479.53;5005326;28;20108;-37
2023/10/12 10:10:33;;;;;;;;;;;;;;;20.97;58.61;101479.53;5004838;28;20053;-38
2023/10/12 10:13:20;;;;;;;1.67;1.33;;;;;;;21.00;58.37;101477.38;5001591;28;20401;-37
2023/10/12 10:15:57;;;;;;;3.55;1.50;;;;;;;20.98;58.33;101475.84;5003684;28;20089;-38
2023/10/12 10:18:28;;;;;;;2.15;1.50;;;;;;;20.98;58.22;101473.13;5005568;28;20307;-37
2023/10/12 10:21:01;;;;;;;3.03;1.70;;;;;;;20.98;58.22;101471.28;5000079;28;20061;-38
2023/10/12 10:23:35;;;;;;;2.67;1.40;;;;;;;20.97;58.27;101450.75;5001768;28;20065;-37
2023/10/12 10:26:30;;;;;;;1.98;1.00;;;;;;;20.97;58.29;101447.19;5002347;28;20543;-37
2023/10/12 10:29:17;;;;;;;1.80;1.15;;;;;;;20.97;58.23;101437.25;5002753;28;20131;-37
2023/10/12 10:31:50;;;;;;;1.80;1.48;;;;;;;20.97;58.23;101439.97;4999352;28;20450;-38
2023/10/12 10:34:24;;;;;;;2.30;1.50;;;;;;;20.97;58.38;101442.66;5004910;28;20046;-37
2023/10/12 10:36:52;;;;;;;;;;;;;;;20.97;58.33;101436.41;5005201;28;20057;-37
2023/10/12 10:41:46;;;;;;;1.40;0.90;;;;;;;20.99;57.95;101423.66;4999512;28;20050;-38
2023/10/12 10:44:21;;;;;;;2.85;1.40;;;;;;;20.99;57.99;101434.44;5004590;28;20566;-37
2023/10/12 10:47:07;;;;;;;1.73;1.10;;;;;;;20.99;58.14;101431.72;5002452;28;20142;-37
2023/10/12 10:49:33;;;;;;;1.85;1.10;;;;;;;20.99;58.39;101427.19;5006803;28;20125;-37
2023/10/12 10:54:37;;;;;;;2.22;1.02;;;;;;;20.99;58.17;101431.72;5003854;28;20056;-37
2023/10/12 11:00:10;;;;;;;2.72;1.15;;;;;;;20.99;58.27;101424.50;4999035;28;20089;-37
2023/10/12 11:02:38;;;;;;;2.28;1.40;;;;;;;20.99;58.01;101432.56;5000418;28;20050;-37
2023/10/12 11:05:10;;;;;;;2.65;1.17;;;;;;;20.99;58.27;101427.19;5000841;28;20049;-37
2023/10/12 11:07:38;;;;;;;2.08;1.30;;;;;;;20.99;58.40;101424.50;5003098;28;20050;-37
2023/10/12 11:10:07;;;;;;;2.13;1.10;;;;;;;20.99;58.17;101424.50;5005691;28;20070;-38
2023/10/12 11:12:36;;;;;;;2.95;1.02;;;;;;;20.99;58.14;101423.66;5000332;28;20148;-37
2023/10/12 11:15:09;;;;;;;1.30;1.08;;;;;;;20.99;58.15;101420.94;5001926;28;20112;-37
2023/10/12 11:18:24;;;;;;;1.58;1.13;;;;;;;21.00;58.01;101423.47;4999418;28;20469;-37
2023/10/12 11:23:11;;;;;;;1.52;1.10;;;;;;;21.01;57.64;101433.25;5002489;28;20398;-37
2023/10/12 11:25:41;;;;;;;1.75;1.30;;;;;;;21.01;57.91;101421.63;5000341;28;20085;-37
2023/10/12 11:28:22;;;;;;;2.63;1.27;;;;;;;20.98;57.77;101412.00;4997774;28;20395;-37
2023/10/12 11:30:52;;;;;;;1.40;0.90;;;;;;;21.00;58.10;101415.41;5000443;28;20327;-37
2023/10/12 11:33:29;;;;;;;1.73;1.08;;;;;;;20.99;58.03;101413.72;4997821;28;20054;-37
2023/10/12 11:36:03;;;;;;;1.77;1.10;;;;;;;20.99;57.79;101413.72;4999213;28;20057;-37
2023/10/12 11:38:31;;;;;;;3.28;1.10;;;;;;;20.98;58.24;101406.59;5001691;28;20453;-37
2023/10/12 11:41:11;;;;;;;2.50;1.20;;;;;;;20.97;57.98;101409.47;5001581;28;20133;-37
2023/10/12 11:44:07;;;;;;;2.15;1.15;;;;;;;20.95;58.05;101397.00;5006293;28;20644;-37
2023/10/12 11:46:43;;;;;;;3.33;1.27;;;;;;;20.97;58.11;101394.16;4998891;28;20046;-37
2023/10/12 11:49:13;;;;;;;2.20;1.20;;;;;;;20.97;58.10;101390.59;5001359;28;20042;-37
2023/10/12 11:52:14;;;;;;;1.40;1.13;;;;;;;20.97;57.89;101396.84;5003101;28;20097;-37
2023/10/12 11:54:32;;;;;;;1.30;0.90;;;;;;;20.96;58.29;101387.06;5004497;28;20128;-37
2023/10/12 11:56:59;;;;;;;1.20;1.10;;;;;;;20.96;58.16;101387.06;4999883;28;20060;-37
2023/10/12 11:59:27;;;;;;;2.10;1.02;;;;;;;20.95;57.77;101397.00;5006627;28;20747;-37
2023/10/12 12:01:57;;;;;;;1.65;0.90;;;;;;;20.95;58.34;101388.09;5000946;28;20084;-37
2023/10/12 12:04:31;;;;;;;2.20;1.10;;;;;;;20.94;58.07;101392.63;4998144;28;20129;-37
2023/10/12 12:07:01;;;;;;;1.08;0.82;;;;;;;20.95;58.20;101383.53;5002944;28;20042;-37
2023/10/12 12:09:27;;;;;;;1.48;1.10;;;;;;;20.94;58.13;101384.53;5001608;28;20136;-37
2023/10/12 12:11:55;;;;;;;2.08;1.00;;;;;;;20.94;58.13;101384.53;4996729;28;20046;-37
2023/10/12 12:14:21;;;;;;;1.60;1.20;;;;;;;20.94;58.32;101378.28;5004948;28;20090;-37
2023/10/12 12:16:48;;;;;;;1.52;0.90;;;;;;;20.95;58.14;101380.84;5002260;28;20481;-37
2023/10/12 12:19:22;;;;;;;1.10;0.80;;;;;;;20.94;58.16;101381.84;5002548;28;20046;-37
2023/10/12 12:21:49;;;;;;;1.20;0.90;;;;;;;20.94;58.46;101375.59;4999302;28;20085;-38
2023/10/12 12:24:22;;;;;;;2.08;1.23;;;;;;;20.94;58.01;101370.19;5001277;28;20042;-38
2023/10/12 12:26:51;;;;;;;1.50;1.10;;;;;;;20.94;58.43;101370.19;5002866;28;20104;-37
2023/10/12 12:29:23;;;;;;;1.13;0.82;;;;;;;20.94;58.39;101368.38;5004122;28;20050;-37
2023/10/12 12:31:49;;;;;;;1.83;1.10;;;;;;;20.93;58.33;101366.66;4997577;28;20089;-37
2023/10/12 12:37:05;;;;;;;1.88;1.00;;;;;;;20.93;58.01;101385.53;4998264;28;21122;-38
2023/10/12 12:39:34;;;;;;;1.35;1.00;;;;;;;20.92;58.00;101394.63;4989815;28;20619;-38
2023/10/12 12:42:02;;;;;;;0.98;0.85;;;;;;;20.92;58.04;101397.31;4999494;28;20054;-39
2023/10/12 12:44:28;;;;;;;1.63;1.00;;;;;;;20.92;57.99;101401.88;4999724;28;20116;-39
2023/10/12 12:46:59;;;;;;;1.50;1.00;;;;;;;20.92;58.13;101412.66;5014078;28;20045;-39
2023/10/12 12:49:26;;;;;;;1.58;1.20;;;;;;;20.91;58.14;101427.13;5012212;28;20124;-39
2023/10/12 12:51:53;;;;;;;1.25;0.93;;;;;;;20.92;58.44;101434.22;5005151;28;20086;-38
2023/10/12 12:54:19;;;;;;;1.75;0.90;;;;;;;20.91;58.28;101427.97;5005175;28;20081;-38
2023/10/12 12:56:46;;;;;;;0.95;0.80;;;;;;;20.91;58.12;101419.88;5000971;28;20358;-38
2023/10/12 12:59:13;;;;;;;1.40;1.02;;;;;;;20.90;58.12;101398.47;5004096;28;20077;-38
2023/10/12 13:01:41;;;;;;;1.55;1.20;;;;;;;20.90;58.23;101358.06;5004641;28;20053;-38
2023/10/12 13:04:10;;;;;;;1.67;1.20;;;;;;;20.87;58.44;101340.38;4999565;28;20042;-39
2023/10/12 13:06:38;;;;;;;2.35;1.20;;;;;;;20.88;57.99;101333.13;5002200;28;20061;-38
2023/10/12 13:09:05;;;;;;;2.10;1.35;;;;;;;20.86;58.24;101321.66;5008651;28;20112;-39
2023/10/12 13:11:33;;;;;;;2.85;1.23;;;;;;;20.85;58.27;101307.34;5005795;28;20053;-38
2023/10/12 13:13:59;;;;;;;2.20;1.20;;;;;;;20.85;58.40;101317.28;5003902;28;20061;-38
2023/10/12 13:16:26;;;;;;;1.40;1.10;;;;;;;20.85;58.22;101328.06;5002537;28;20050;-39
2023/10/12 13:18:53;;;;;;;1.88;1.20;;;;;;;20.85;58.53;101344.22;5006017;28;20590;-39
2023/10/12 13:21:22;;;;;;;4.05;1.55;;;;;;;20.85;58.31;101336.13;5011181;28;20362;-38
2023/10/12 13:23:49;;;;;;;1.92;1.40;;;;;;;20.85;58.59;101325.38;5011645;28;20059;-38
2023/10/12 13:26:21;;;;;;;2.67;1.40;;;;;;;20.85;58.54;101322.66;5005259;28;20052;-38
2023/10/12 13:28:47;;;;;;;2.30;1.40;;;;;;;20.85;58.50;101320.81;5001384;28;20100;-39
2023/10/12 13:31:14;;;;;;;1.83;1.25;;;;;;;20.85;58.30;101318.13;5003938;28;20430;-39
2023/10/12 13:33:41;;;;;;;3.08;1.30;;;;;;;20.85;58.64;101307.34;5003069;28;20057;-38
2023/10/12 13:36:09;;;;;;;2.33;1.23;;;;;;;20.87;58.44;101291.03;5002491;28;20042;-37
2023/10/12 13:38:37;;;;;;;2.67;1.42;;;;;;;20.85;58.57;101274.16;5007419;28;20129;-38
2023/10/12 13:41:05;;;;;;;3.05;1.55;;;;;;;20.85;58.48;101276.88;5005876;28;20108;-38
2023/10/12 13:43:32;;;;;;;1.85;1.15;;;;;;;20.86;58.58;101254.28;5008468;28;20054;-38
2023/10/12 13:45:59;;;;;;;2.30;1.40;;;;;;;20.85;58.57;101234.59;5003753;28;20058;-38
2023/10/12 13:48:29;;;;;;;2.70;1.48;;;;;;;20.86;58.77;101243.53;5001053;28;20046;-38
2023/10/12 13:51:04;;;;;;;1.90;1.30;;;;;;;20.87;58.55;101253.31;5005722;28;20050;-38
2023/10/12 13:53:36;;;;;;;1.77;1.13;;;;;;;20.87;58.88;101264.94;5009565;28;20141;-38
2023/10/12 13:56:08;;;;;;;1.33;1.10;;;;;;;20.90;58.68;101277.22;5001753;28;20116;-38